^^
Station Historical Data
Daily Summary for January 11, 2018 Units:  English    Metric   Both
« Previous Day
Next Day »
Daily Weekly Monthly Yearly Custom
  High: Low: Average:
Temperature: TemperatureC °F -8.1 °F -4.5 °F
Dew Point: DewpointC °F -9.2 °F -5.4 °F
Humidity: Humidity% 92% 93%
Wind Speed: WindSpeedKMHmph 0.0mph 0.4mph
Wind Gust: WindSpeedGustKMHmph - -
Wind- - East
Pressure: PressurehPa in 1024.6 in -
Precipitation: 0.0 in    
Historical Graphs
 
 
Tabular Data for January 11, 2018
Time Temperature Dew Point Pressure Wind Wind Speed Wind Gust Humidity Rainfall Rate (Hourly) solar Conditions
TemperatureC °F DewpointC °F PressurehPa in Calm     Humidity% HourlyPrecipMM in SoftwareType W/m2 Conditions
02:20 -6.5 °F -7.4 °F 1024.9 in Calm     93% 0.0 in WeatherDisplay:10.37 W/m2 FEW
02:25 -6.6 °F -7.5 °F 1024.9 in Calm     93% 0.0 in WeatherDisplay:10.37 W/m2 FEW
02:30 -6.6 °F -7.6 °F 1024.9 in Calm     93% 0.0 in WeatherDisplay:10.37 W/m2 FEW
02:36 -6.7 °F -7.6 °F 1024.9 in Calm     93% 0.0 in WeatherDisplay:10.37 W/m2 FEW
02:41 -6.7 °F -7.6 °F 1024.9 in Calm     93% 0.0 in WeatherDisplay:10.37 W/m2 FEW
02:46 -6.7 °F -7.6 °F 1024.9 in Calm     93% 0.0 in WeatherDisplay:10.37 W/m2 FEW
02:56 -6.7 °F -7.7 °F 1024.9 in NNW 0.6 mph 3.7 mph 93% 0.0 in WeatherDisplay:10.37 W/m2 FEW
03:01 -6.7 °F -7.6 °F 1024.9 in Calm     93% 0.0 in WeatherDisplay:10.37 W/m2 FEW
03:06 -6.7 °F -7.6 °F 1024.6 in Calm     93% 0.0 in WeatherDisplay:10.37 W/m2 FEW
03:09 -6.7 °F -7.6 °F 1024.6 in Calm     93% 0.0 in WeatherDisplay:10.37 W/m2 FEW
03:10 -6.7 °F -7.6 °F 1024.6 in Calm     93% 0.0 in WeatherDisplay:10.37 W/m2 FEW
03:20 -6.6 °F -7.6 °F 1024.6 in Calm     93% 0.0 in WeatherDisplay:10.37 W/m2 FEW
03:21 -6.6 °F -7.6 °F 1024.6 in Calm     93% 0.0 in WeatherDisplay:10.37 W/m2 FEW
03:26 -6.6 °F -7.6 °F 1024.6 in Calm     93% 0.0 in WeatherDisplay:10.37 W/m2 FEW
03:36 -6.7 °F -7.6 °F 1024.9 in Calm     93% 0.0 in WeatherDisplay:10.37 W/m2 FEW
03:41 -6.7 °F -7.7 °F 1024.9 in Calm     93% 0.0 in WeatherDisplay:10.37 W/m2 FEW
03:42 -6.7 °F -7.7 °F 1024.9 in Calm     93% 0.0 in WeatherDisplay:10.37 W/m2 FEW
03:44 -6.7 °F -7.7 °F 1024.9 in Calm     93% 0.0 in WeatherDisplay:10.37 W/m2 FEW
03:49 -6.8 °F -7.7 °F 1024.9 in Calm     93% 0.0 in WeatherDisplay:10.37 W/m2 FEW
03:55 -6.8 °F -7.8 °F 1024.9 in Calm     93% 0.0 in WeatherDisplay:10.37 W/m2 FEW
04:02 -6.8 °F -7.8 °F 1024.9 in Calm     93% 0.0 in WeatherDisplay:10.37 W/m2 FEW
04:07 -6.9 °F -7.8 °F 1024.9 in Calm     93% 0.0 in WeatherDisplay:10.37 W/m2 FEW
04:12 -6.9 °F -7.8 °F 1024.9 in Calm     93% 0.0 in WeatherDisplay:10.37 W/m2 FEW
04:17 -6.9 °F -7.8 °F 1024.9 in Calm     93% 0.0 in WeatherDisplay:10.37 W/m2 FEW
04:25 -6.9 °F -7.8 °F 1024.9 in Calm     93% 0.0 in WeatherDisplay:10.37 W/m2 FEW
04:39 -7.0 °F -7.9 °F 1024.9 in Calm     93% 0.0 in WeatherDisplay:10.37 W/m2 FEW
04:44 -7.1 °F -8.0 °F 1024.9 in Calm     93% 0.0 in WeatherDisplay:10.37 W/m2 FEW
05:00 -7.2 °F -8.2 °F 1024.9 in Calm     93% 0.0 in WeatherDisplay:10.37 W/m2 FEW
05:05 -7.2 °F -8.2 °F 1024.9 in Calm     93% 0.0 in WeatherDisplay:10.37 W/m2 FEW
05:14 -7.3 °F -8.3 °F 1024.9 in Calm     93% 0.0 in WeatherDisplay:10.37 W/m2 FEW
05:24 -7.5 °F -8.4 °F 1025.3 in Calm     93% 0.0 in WeatherDisplay:10.37 W/m2 FEW
05:34 -7.7 °F -8.6 °F 1025.3 in Calm     93% 0.0 in WeatherDisplay:10.37 W/m2 FEW
05:42 -7.7 °F -8.8 °F 1025.3 in Calm     92% 0.0 in WeatherDisplay:10.37 W/m2 FEW
05:47 -7.8 °F -8.8 °F 1025.3 in Calm     92% 0.0 in WeatherDisplay:10.37 W/m2 FEW
05:52 -7.8 °F -8.9 °F 1025.3 in Calm     92% 0.0 in WeatherDisplay:10.37 W/m2 FEW
05:58 -7.9 °F -9.0 °F 1025.3 in Calm     92% 0.0 in WeatherDisplay:10.37 W/m2 FEW
06:00 -7.9 °F -8.9 °F 1025.6 in Calm     93% 0.0 in WeatherDisplay:10.37 W/m2 FEW
06:06 -8.0 °F -8.9 °F 1025.6 in Calm     93% 0.0 in WeatherDisplay:10.37 W/m2 FEW
06:11 -8.1 °F -9.1 °F 1025.6 in Calm     92% 0.0 in WeatherDisplay:10.37 W/m2 FEW
06:16 -8.1 °F -9.2 °F 1025.6 in Calm     92% 0.0 in WeatherDisplay:10.37 W/m2 FEW
06:21 -8.1 °F -9.2 °F 1025.6 in Calm     92% 0.0 in WeatherDisplay:10.37 W/m2 FEW
06:26 -8.1 °F -9.1 °F 1025.6 in Calm     93% 0.0 in WeatherDisplay:10.37 W/m2 FEW
06:31 -8.1 °F -9.0 °F 1025.6 in Calm     93% 0.0 in WeatherDisplay:10.37 W/m2 FEW
06:36 -8.1 °F -9.1 °F 1025.6 in Calm     92% 0.0 in WeatherDisplay:10.37 W/m2 FEW
06:45 -8.0 °F -8.9 °F 1025.6 in Calm     93% 0.0 in WeatherDisplay:10.37 W/m2 FEW
06:50 -7.9 °F -8.8 °F 1025.6 in Calm     93% 0.0 in WeatherDisplay:10.37 W/m2 FEW
06:55 -7.8 °F -8.7 °F 1026.0 in Calm     93% 0.0 in WeatherDisplay:10.37 W/m2 FEW
07:04 -7.5 °F -8.4 °F 1026.0 in Calm     93% 0.0 in WeatherDisplay:10.37 W/m2 FEW
07:09 -7.3 °F -8.3 °F 1026.0 in Calm     93% 0.0 in WeatherDisplay:10.37 W/m2 FEW
07:14 -7.2 °F -8.2 °F 1026.0 in Calm     93% 0.0 in WeatherDisplay:10.37 W/m2 FEW
07:19 -7.1 °F -8.1 °F 1026.0 in Calm     93% 0.0 in WeatherDisplay:10.37 W/m2 FEW
07:24 -7.0 °F -7.9 °F 1026.0 in Calm     93% 0.0 in WeatherDisplay:10.37 W/m2 FEW
07:29 -6.9 °F -7.9 °F 1026.3 in Calm     93% 0.0 in WeatherDisplay:10.37 W/m2 FEW
07:34 -6.8 °F -7.8 °F 1026.3 in Calm     93% 0.0 in WeatherDisplay:10.37 W/m2 FEW
07:39 -6.8 °F -7.7 °F 1026.3 in Calm   3.7 mph 93% 0.0 in WeatherDisplay:10.37 W/m2 FEW
07:44 -6.7 °F -7.7 °F 1026.3 in Calm     93% 0.0 in WeatherDisplay:10.37 W/m2 FEW
07:54 -6.7 °F -7.6 °F 1026.3 in Calm     93% 0.0 in WeatherDisplay:10.37 W/m2 FEW
07:59 -6.7 °F -7.6 °F 1026.6 in Calm     93% 0.0 in WeatherDisplay:10.37 W/m2 FEW
08:10 -6.7 °F -7.7 °F 1026.6 in Calm     93% 0.0 in WeatherDisplay:10.37 W/m2 FEW
08:16 -6.7 °F -7.6 °F 1026.6 in ENE 3.2 mph 5.6 mph 93% 0.0 in WeatherDisplay:10.37 W/m2 FEW
08:26 -6.5 °F -7.4 °F 1027.0 in Calm     93% 0.0 in WeatherDisplay:10.37 W/m2 FEW
08:31 -6.4 °F -7.4 °F 1027.0 in Calm     93% 0.0 in WeatherDisplay:10.37 W/m2 FEW
08:36 -6.4 °F -7.3 °F 1027.0 in Calm   3.2 mph 93% 0.0 in WeatherDisplay:10.37 W/m2 FEW
08:41 -6.3 °F -7.2 °F 1027.0 in ENE 4.5 mph 7.4 mph 93% 0.0 in WeatherDisplay:10.37 W/m2 FEW
08:48 -6.1 °F -7.0 °F 1027.0 in ESE 1.1 mph 5.6 mph 93% 0.0 in WeatherDisplay:10.37 W/m2 FEW
08:56 -6.0 °F -6.8 °F 1027.3 in Calm     94% 0.0 in WeatherDisplay:10.37 W/m2 FEW
09:03 -5.9 °F -6.7 °F 1027.3 in ENE 1.6 mph 4.8 mph 94% 0.0 in WeatherDisplay:10.37 W/m2 FEW
09:18 -5.8 °F -6.7 °F 1027.7 in Calm   3.7 mph 93% 0.0 in WeatherDisplay:10.37 W/m2 FEW
09:27 -5.7 °F -6.7 °F 1027.7 in Calm     93% 0.0 in WeatherDisplay:10.37 W/m2 FEW
09:32 -5.7 °F -6.5 °F 1027.7 in ENE 3.9 mph 5.6 mph 94% 0.0 in WeatherDisplay:10.37 W/m2 FEW
09:37 -5.6 °F -6.4 °F 1027.7 in Calm     94% 0.0 in WeatherDisplay:10.37 W/m2 FEW
09:43 -5.6 °F -6.4 °F 1027.7 in Calm     94% 0.0 in WeatherDisplay:10.37 W/m2 FEW
09:50 -5.5 °F -6.3 °F 1027.7 in Calm     94% 0.0 in WeatherDisplay:10.37 W/m2 FEW
09:55 -5.4 °F -6.3 °F 1027.7 in Calm   5.6 mph 94% 0.0 in WeatherDisplay:10.37 W/m2 FEW
10:00 -5.4 °F -6.3 °F 1028.0 in Calm     94% 0.0 in WeatherDisplay:10.37 W/m2 FEW
10:05 -5.3 °F -6.3 °F 1028.0 in Calm     93% 0.0 in WeatherDisplay:10.37 W/m2 FEW
10:10 -5.3 °F -6.1 °F 1028.0 in Calm     94% 0.0 in WeatherDisplay:10.37 W/m2 FEW
10:19 -5.2 °F -6.0 °F 1028.0 in Calm     94% 0.0 in WeatherDisplay:10.37 W/m2 FEW
10:24 -5.1 °F -5.9 °F 1028.3 in ENE 1.9 mph 3.7 mph 94% 0.0 in WeatherDisplay:10.37 W/m2 FEW
10:43 -4.9 °F -5.8 °F 1028.3 in ENE 1.8 mph 3.2 mph 94% 0.0 in WeatherDisplay:10.37 W/m2 FEW
10:53 -4.9 °F -5.7 °F 1028.7 in Calm     94% 0.0 in WeatherDisplay:10.37 W/m2 FEW
11:01 -4.8 °F -5.7 °F 1028.7 in Calm   5.6 mph 94% 0.0 in WeatherDisplay:10.37 W/m2 FEW
11:06 -4.8 °F -5.7 °F 1029.0 in ENE 1.3 mph 7.4 mph 94% 0.0 in WeatherDisplay:10.37 W/m2 FEW
11:11 -4.8 °F -5.7 °F 1029.0 in ENE 1.1 mph 5.6 mph 94% 0.0 in WeatherDisplay:10.37 W/m2 FEW
11:19 -4.7 °F -5.6 °F 1029.0 in ENE 3.9 mph 5.6 mph 94% 0.0 in WeatherDisplay:10.37 W/m2 FEW
11:30 -4.7 °F -5.5 °F 1029.0 in ENE 2.3 mph 5.6 mph 94% 0.0 in WeatherDisplay:10.37 W/m2 FEW
11:35 -4.6 °F -5.4 °F 1029.0 in ENE 2.9 mph 7.4 mph 94% 0.0 in WeatherDisplay:10.37 W/m2 FEW
11:40 -4.6 °F -5.4 °F 1029.0 in ENE 3.2 mph 7.4 mph 94% 0.0 in WeatherDisplay:10.37 W/m2 FEW
11:49 -4.5 °F -5.3 °F 1029.0 in ESE 0.8 mph 9.3 mph 94% 0.0 in WeatherDisplay:10.37 W/m2 FEW
11:54 -4.5 °F -5.3 °F 1029.0 in East 1.6 mph 5.6 mph 94% 0.0 in WeatherDisplay:10.37 W/m2 FEW
11:59 -4.4 °F -5.3 °F 1029.0 in Calm     94% 0.0 in WeatherDisplay:10.37 W/m2 FEW
12:04 -4.4 °F -5.3 °F 1029.0 in Calm     94% 0.0 in WeatherDisplay:10.37 W/m2 FEW
12:09 -4.4 °F -5.2 °F 1029.0 in Calm   1.6 mph 94% 0.0 in WeatherDisplay:10.37 W/m2 FEW
12:14 -4.3 °F -5.1 °F 1029.3 in Calm     94% 0.0 in WeatherDisplay:10.37 W/m2 FEW
12:19 -4.3 °F -5.1 °F 1029.0 in East 0.2 mph 3.7 mph 94% 0.0 in WeatherDisplay:10.37 W/m2 FEW
12:36 -4.1 °F -4.9 °F 1029.0 in East 0.5 mph 5.6 mph 94% 0.0 in WeatherDisplay:10.37 W/m2 FEW
12:45 -4.0 °F -4.8 °F 1029.3 in East 3.1 mph 5.6 mph 94% 0.0 in WeatherDisplay:10.37 W/m2 FEW
13:01 -3.8 °F -4.7 °F 1029.3 in Calm     94% 0.0 in WeatherDisplay:10.37 W/m2 FEW
13:06 -3.8 °F -4.6 °F 1029.3 in Calm     94% 0.0 in WeatherDisplay:10.37 W/m2 FEW
13:16 -3.7 °F -4.6 °F 1029.3 in Calm     94% 0.0 in WeatherDisplay:10.37 W/m2 FEW
13:21 -3.7 °F -4.5 °F 1029.3 in Calm     94% 0.0 in WeatherDisplay:10.37 W/m2 FEW
13:26 -3.7 °F -4.5 °F 1029.3 in East 0.2 mph 3.2 mph 94% 0.0 in WeatherDisplay:10.37 W/m2 FEW
13:33 -3.6 °F -4.4 °F 1029.7 in Calm     94% 0.0 in WeatherDisplay:10.37 W/m2 FEW
13:54 -3.4 °F -4.3 °F 1029.7 in Calm     94% 0.0 in WeatherDisplay:10.37 W/m2 FEW
14:00 -3.4 °F -4.2 °F 1029.7 in Calm   1.9 mph 94% 0.0 in WeatherDisplay:10.37 W/m2 FEW
14:10 -3.3 °F -4.1 °F 1029.7 in East 1.0 mph   94% 0.0 in WeatherDisplay:10.37 W/m2 FEW
14:16 -3.3 °F -4.1 °F 1029.7 in East 2.4 mph 3.7 mph 94% 0.0 in WeatherDisplay:10.37 W/m2 FEW
14:21 -3.3 °F -4.1 °F 1029.7 in East 1.9 mph 1.9 mph 94% 0.0 in WeatherDisplay:10.37 W/m2 FEW
14:26 -3.2 °F -4.1 °F 1029.7 in Calm     94% 0.0 in WeatherDisplay:10.37 W/m2 FEW
14:32 -3.2 °F -4.0 °F 1029.7 in Calm     94% 0.0 in WeatherDisplay:10.37 W/m2 FEW
14:37 -3.2 °F -4.0 °F 1030.0 in ENE 2.3 mph 5.6 mph 94% 0.0 in WeatherDisplay:10.37 W/m2 FEW
14:42 -3.1 °F -3.9 °F 1030.0 in Calm     94% 0.0 in WeatherDisplay:10.37 W/m2 FEW
14:47 -3.1 °F -3.9 °F 1030.0 in Calm     94% 0.0 in WeatherDisplay:10.37 W/m2 FEW
14:52 -3.1 °F -3.9 °F 1030.0 in ENE 1.1 mph 5.6 mph 94% 0.0 in WeatherDisplay:10.37 W/m2 FEW
14:57 -3.1 °F -3.9 °F 1030.0 in Calm     94% 0.0 in WeatherDisplay:10.37 W/m2 FEW
15:02 -3.1 °F -3.9 °F 1030.0 in ENE 0.3 mph 3.7 mph 94% 0.0 in WeatherDisplay:10.37 W/m2 FEW
15:07 -3.0 °F -3.8 °F 1030.0 in Calm     94% 0.0 in WeatherDisplay:10.37 W/m2 FEW
15:12 -3.0 °F -3.8 °F 1030.0 in Calm     94% 0.0 in WeatherDisplay:10.37 W/m2 FEW
15:17 -3.0 °F -3.8 °F 1030.4 in Calm     94% 0.0 in WeatherDisplay:10.37 W/m2 FEW
15:22 -2.9 °F -3.8 °F 1030.4 in Calm     94% 0.0 in WeatherDisplay:10.37 W/m2 FEW
15:27 -2.9 °F -3.8 °F 1030.4 in ENE 0.5 mph 3.7 mph 94% 0.0 in WeatherDisplay:10.37 W/m2 FEW
15:32 -2.9 °F -3.8 °F 1030.4 in ENE 1.6 mph 3.7 mph 94% 0.0 in WeatherDisplay:10.37 W/m2 FEW
15:37 -2.9 °F -3.7 °F 1030.4 in ENE 1.0 mph 3.7 mph 94% 0.0 in WeatherDisplay:10.37 W/m2 FEW
15:42 -2.9 °F -3.7 °F 1030.4 in Calm     94% 0.0 in WeatherDisplay:10.37 W/m2 FEW
15:47 -2.8 °F -3.7 °F 1030.4 in Calm     94% 0.0 in WeatherDisplay:10.37 W/m2 FEW
15:52 -2.8 °F -3.7 °F 1030.4 in Calm     94% 0.0 in WeatherDisplay:10.37 W/m2 FEW
15:57 -2.8 °F -3.7 °F 1030.4 in ENE 1.9 mph 3.7 mph 94% 0.0 in WeatherDisplay:10.37 W/m2 FEW
16:06 -2.8 °F -3.7 °F 1030.7 in Calm     94% 0.0 in WeatherDisplay:10.37 W/m2 FEW
16:11 -2.8 °F -3.7 °F 1030.7 in Calm     94% 0.0 in WeatherDisplay:10.37 W/m2 FEW
16:16 -2.8 °F -3.7 °F 1030.7 in Calm     94% 0.0 in WeatherDisplay:10.37 W/m2 FEW
16:21 -2.8 °F -3.7 °F 1030.7 in Calm     94% 0.0 in WeatherDisplay:10.37 W/m2 FEW
16:26 -2.8 °F -3.6 °F 1031.0 in Calm     94% 0.0 in WeatherDisplay:10.37 W/m2 FEW
16:31 -2.8 °F -3.6 °F 1031.0 in ENE 0.3 mph 1.9 mph 94% 0.0 in WeatherDisplay:10.37 W/m2 FEW
16:38 -2.8 °F -3.6 °F 1031.0 in Calm     94% 0.0 in WeatherDisplay:10.37 W/m2 FEW
16:43 -2.8 °F -3.6 °F 1031.0 in ENE 0.2 mph   94% 0.0 in WeatherDisplay:10.37 W/m2 FEW
16:58 -2.7 °F -3.6 °F 1031.0 in Calm     94% 0.0 in WeatherDisplay:10.37 W/m2 FEW
17:06 -2.7 °F -3.5 °F 1031.4 in ENE 0.2 mph 1.9 mph 94% 0.0 in WeatherDisplay:10.37 W/m2 FEW
17:11 -2.7 °F -3.5 °F 1031.4 in Calm     94% 0.0 in WeatherDisplay:10.37 W/m2 FEW
17:16 -2.7 °F -3.5 °F 1031.4 in Calm     94% 0.0 in WeatherDisplay:10.37 W/m2 FEW
17:21 -2.6 °F -3.4 °F 1031.4 in Calm     94% 0.0 in WeatherDisplay:10.37 W/m2 FEW
17:31 -2.6 °F -3.4 °F 1031.7 in Calm   1.9 mph 94% 0.0 in WeatherDisplay:10.37 W/m2 FEW
17:53 -2.6 °F -3.4 °F 1031.7 in Calm   3.7 mph 94% 0.0 in WeatherDisplay:10.37 W/m2 FEW
17:58 -2.6 °F -3.4 °F 1031.7 in ENE 0.5 mph 5.6 mph 94% 0.0 in WeatherDisplay:10.37 W/m2 FEW
18:03 -2.6 °F -3.4 °F 1031.7 in Calm     94% 0.0 in WeatherDisplay:10.37 W/m2 FEW
18:08 -2.6 °F -3.4 °F 1031.7 in ENE 0.5 mph 3.7 mph 94% 0.0 in WeatherDisplay:10.37 W/m2 FEW
18:13 -2.6 °F -3.4 °F 1031.7 in Calm     94% 0.0 in WeatherDisplay:10.37 W/m2 FEW
18:34 -2.6 °F -3.4 °F 1032.1 in Calm     94% 0.0 in WeatherDisplay:10.37 W/m2 FEW
18:39 -2.6 °F -3.4 °F 1032.1 in ENE 1.0 mph 5.6 mph 94% 0.0 in WeatherDisplay:10.37 W/m2 FEW
18:44 -2.6 °F -3.4 °F 1032.4 in ENE 3.1 mph 5.6 mph 94% 0.0 in WeatherDisplay:10.37 W/m2 FEW
18:49 -2.6 °F -3.4 °F 1032.4 in ENE 0.6 mph 3.7 mph 94% 0.0 in WeatherDisplay:10.37 W/m2 FEW
18:54 -2.6 °F -3.4 °F 1032.4 in Calm     94% 0.0 in WeatherDisplay:10.37 W/m2 FEW
18:59 -2.6 °F -3.4 °F 1032.4 in ENE 1.6 mph   94% 0.0 in WeatherDisplay:10.37 W/m2 FEW
19:04 -2.6 °F -3.4 °F 1032.4 in ENE 0.3 mph 3.7 mph 94% 0.0 in WeatherDisplay:10.37 W/m2 FEW
19:18 -2.6 °F -3.4 °F 1032.4 in Calm     94% 0.0 in WeatherDisplay:10.37 W/m2 FEW
19:23 -2.5 °F -3.5 °F 1032.7 in ENE 1.0 mph 3.7 mph 93% 0.0 in WeatherDisplay:10.37 W/m2 FEW
19:31 -2.6 °F -3.6 °F 1032.7 in Calm     93% 0.0 in WeatherDisplay:10.37 W/m2 FEW
19:36 -2.6 °F -3.6 °F 1032.7 in Calm     93% 0.0 in WeatherDisplay:10.37 W/m2 FEW
19:46 -2.6 °F -3.6 °F 1032.7 in Calm     93% 0.0 in WeatherDisplay:10.37 W/m2 FEW
19:51 -2.6 °F -3.6 °F 1032.7 in Calm     93% 0.0 in WeatherDisplay:10.37 W/m2 FEW
19:56 -2.6 °F -3.6 °F 1033.1 in Calm     93% 0.0 in WeatherDisplay:10.37 W/m2 FEW
20:01 -2.6 °F -3.6 °F 1033.1 in Calm     93% 0.0 in WeatherDisplay:10.37 W/m2 FEW
20:06 -2.6 °F -3.6 °F 1033.1 in ENE 1.3 mph 3.2 mph 93% 0.0 in WeatherDisplay:10.37 W/m2 FEW
20:11 -2.6 °F -3.6 °F 1033.1 in Calm     93% 0.0 in WeatherDisplay:10.37 W/m2 FEW
20:16 -2.6 °F -3.6 °F 1033.1 in Calm     93% 0.0 in WeatherDisplay:10.37 W/m2 FEW
20:21 -2.6 °F -3.6 °F 1033.1 in Calm   5.6 mph 93% 0.0 in WeatherDisplay:10.37 W/m2 FEW
20:26 -2.5 °F -3.5 °F 1033.1 in Calm     93% 0.0 in WeatherDisplay:10.37 W/m2 FEW
20:31 -2.5 °F -3.5 °F 1033.1 in ENE 2.6 mph 5.6 mph 93% 0.0 in WeatherDisplay:10.37 W/m2 FEW
20:36 -2.5 °F -3.5 °F 1033.4 in Calm     93% 0.0 in WeatherDisplay:10.37 W/m2 FEW
20:47 -2.5 °F -3.5 °F 1033.4 in Calm     93% 0.0 in WeatherDisplay:10.37 W/m2 FEW
20:56 -2.5 °F -3.5 °F 1033.4 in ENE 0.6 mph 5.6 mph 93% 0.0 in WeatherDisplay:10.37 W/m2 FEW
21:01 -2.5 °F -3.5 °F 1033.4 in Calm     93% 0.0 in WeatherDisplay:10.37 W/m2 FEW
21:06 -2.5 °F -3.5 °F 1033.4 in Calm     93% 0.0 in WeatherDisplay:10.37 W/m2 FEW
21:15 -2.5 °F -3.5 °F 1033.4 in ENE 0.8 mph 3.7 mph 93% 0.0 in WeatherDisplay:10.37 W/m2 FEW
21:23 -2.5 °F -3.5 °F 1033.4 in Calm   3.7 mph 93% 0.0 in WeatherDisplay:10.37 W/m2 FEW
21:28 -2.5 °F -3.5 °F 1033.4 in Calm     93% 0.0 in WeatherDisplay:10.37 W/m2 FEW
21:36 -2.5 °F -3.5 °F 1033.4 in Calm   3.7 mph 93% 0.0 in WeatherDisplay:10.37 W/m2 FEW
21:41 -2.5 °F -3.5 °F 1033.7 in Calm     93% 0.0 in WeatherDisplay:10.37 W/m2 FEW
21:48 -2.5 °F -3.5 °F 1033.7 in Calm     93% 0.0 in WeatherDisplay:10.37 W/m2 FEW
21:57 -2.5 °F -3.5 °F 1033.7 in Calm     93% 0.0 in WeatherDisplay:10.37 W/m2 FEW
22:02 -2.5 °F -3.5 °F 1034.1 in ENE 2.6 mph 3.7 mph 93% 0.0 in WeatherDisplay:10.37 W/m2 FEW
22:07 -2.5 °F -3.5 °F 1034.1 in Calm   7.4 mph 93% 0.0 in WeatherDisplay:10.37 W/m2 FEW
22:12 -2.5 °F -3.5 °F 1034.1 in Calm     93% 0.0 in WeatherDisplay:10.37 W/m2 FEW
22:17 -2.5 °F -3.5 °F 1034.1 in Calm     93% 0.0 in WeatherDisplay:10.37 W/m2 FEW
22:22 -2.5 °F -3.5 °F 1034.1 in Calm     93% 0.0 in WeatherDisplay:10.37 W/m2 FEW
22:28 -2.5 °F -3.5 °F 1034.1 in Calm     93% 0.0 in WeatherDisplay:10.37 W/m2 FEW
22:35 -2.5 °F -3.5 °F 1034.4 in Calm     93% 0.0 in WeatherDisplay:10.37 W/m2 FEW
22:40 -2.5 °F -3.5 °F 1034.4 in Calm     93% 0.0 in WeatherDisplay:10.37 W/m2 FEW
22:45 -2.5 °F -3.5 °F 1034.4 in ENE 0.6 mph 3.7 mph 93% 0.0 in WeatherDisplay:10.37 W/m2 FEW
22:51 -2.5 °F -3.5 °F 1034.4 in Calm     93% 0.0 in WeatherDisplay:10.37 W/m2 FEW
22:56 -2.5 °F -3.5 °F 1034.4 in Calm     93% 0.0 in WeatherDisplay:10.37 W/m2 FEW
23:01 -2.5 °F -3.5 °F 1034.4 in Calm     93% 0.0 in WeatherDisplay:10.37 W/m2 FEW
23:06 -2.5 °F -3.5 °F 1034.4 in Calm     93% 0.0 in WeatherDisplay:10.37 W/m2 FEW
23:11 -2.5 °F -3.5 °F 1034.4 in Calm     93% 0.0 in WeatherDisplay:10.37 W/m2 FEW
23:16 -2.5 °F -3.5 °F 1034.4 in Calm     93% 0.0 in WeatherDisplay:10.37 W/m2 FEW
23:21 -2.5 °F -3.5 °F 1034.8 in Calm     93% 0.0 in WeatherDisplay:10.37 W/m2 FEW
23:28 -2.5 °F -3.5 °F 1034.8 in Calm     93% 0.0 in WeatherDisplay:10.37 W/m2 FEW
23:33 -2.5 °F -3.5 °F 1034.8 in Calm     93% 0.0 in WeatherDisplay:10.37 W/m2 FEW
23:43 -2.5 °F -3.5 °F 1034.8 in Calm     93% 0.0 in WeatherDisplay:10.37 W/m2 FEW
23:48 -2.4 °F -3.4 °F 1035.1 in Calm     93% 0.0 in WeatherDisplay:10.37 W/m2 FEW
23:57 -2.4 °F -3.4 °F 1035.1 in ENE 1.0 mph 5.6 mph 93% 0.0 in WeatherDisplay:10.37 W/m2 FEW
Tuulensuunkaari, Veikkola, Suomi
Compliments of Weather Underground - 2.25 mb